TimeCDT,TemperatureF,Dew PointF,Humidity,Sea Level PressureIn,VisibilityMPH,Wind Direction,Wind SpeedMPH,Gust SpeedMPH,PrecipitationIn,Events,Conditions,WindDirDegrees,DateUTC
12:53 AM,63.0,60.1,90,29.94,10.0,Calm,Calm,-,N/A,,Clear,0,2013-06-08 05:53:00
1:53 AM,61.0,59.0,93,29.94,10.0,Calm,Calm,-,N/A,,Clear,0,2013-06-08 06:53:00
2:53 AM,61.0,59.0,93,29.94,10.0,Calm,Calm,-,N/A,,Clear,0,2013-06-08 07:53:00
3:53 AM,60.1,57.9,93,29.94,10.0,Calm,Calm,-,N/A,,Clear,0,2013-06-08 08:53:00
4:53 AM,59.0,57.0,93,29.94,9.0,Calm,Calm,-,N/A,,Clear,0,2013-06-08 09:53:00
5:34 AM,57.2,57.2,100,29.93,2.5,SSE,4.6,-,N/A,,Clear,160,2013-06-08 10:34:00
5:42 AM,57.2,57.2,100,29.93,8.0,SSE,3.5,-,N/A,,Clear,160,2013-06-08 10:42:00
5:53 AM,59.0,57.9,96,29.96,7.0,Calm,Calm,-,N/A,,Clear,0,2013-06-08 10:53:00
6:53 AM,63.0,61.0,93,29.96,10.0,Calm,Calm,-,N/A,,Clear,0,2013-06-08 11:53:00
7:53 AM,69.1,63.0,81,29.97,10.0,Calm,Calm,-,N/A,,Clear,0,2013-06-08 12:53:00
8:53 AM,75.0,59.0,57,30.00,10.0,Calm,Calm,-,N/A,,Unknown,0,2013-06-08 13:53:00
9:53 AM,77.0,59.0,54,30.01,10.0,ESE,4.6,-,N/A,,Mostly Cloudy,110,2013-06-08 14:53:00
10:53 AM,81.0,53.1,38,30.00,10.0,Variable,3.5,-,N/A,,Partly Cloudy,0,2013-06-08 15:53:00
11:53 AM,82.0,53.1,37,30.00,10.0,SSE,4.6,-,N/A,,Clear,160,2013-06-08 16:53:00
12:53 PM,84.0,55.0,37,29.99,10.0,SSE,8.1,-,N/A,,Clear,160,2013-06-08 17:53:00
1:53 PM,84.9,55.9,37,29.97,10.0,ESE,8.1,-,N/A,,Clear,120,2013-06-08 18:53:00
2:53 PM,84.0,57.9,41,29.96,10.0,South,9.2,-,N/A,,Clear,170,2013-06-08 19:53:00
3:53 PM,82.9,57.0,41,29.95,10.0,SSE,8.1,-,N/A,,Partly Cloudy,150,2013-06-08 20:53:00
4:53 PM,82.9,57.9,42,29.93,10.0,SE,8.1,-,N/A,,Clear,140,2013-06-08 21:53:00
5:53 PM,84.0,60.1,44,29.93,10.0,ESE,11.5,-,N/A,,Partly Cloudy,110,2013-06-08 22:53:00
6:53 PM,82.0,59.0,45,29.94,10.0,SE,9.2,-,N/A,,Partly Cloudy,140,2013-06-08 23:53:00
7:53 PM,79.0,61.0,54,29.95,10.0,SE,6.9,-,N/A,,Scattered Clouds,140,2013-06-09 00:53:00
8:53 PM,75.0,63.0,66,29.94,10.0,ESE,4.6,-,N/A,,Scattered Clouds,110,2013-06-09 01:53:00
9:53 PM,73.9,64.9,73,29.94,10.0,East,3.5,-,N/A,,Mostly Cloudy,100,2013-06-09 02:53:00
10:53 PM,73.9,63.0,68,29.94,10.0,East,4.6,-,N/A,,Clear,100,2013-06-09 03:53:00
11:53 PM,73.0,64.0,73,29.95,10.0,East,4.6,-,N/A,,Mostly Cloudy,100,2013-06-09 04:53:00